Tiempo atmosférico en la estación meteorológica de Adeje, Santa Cruz de Tenerife (130 m.)



Fecha
DESCASC
Temp. máxima en grados centígrados (hora)
DESCASC
Temp. mínima en grados centígrados (hora)
DESCASC
Temp. media en grados centígrados
DESCASC
Racha de viento máxima en m/sg (hora)
DESCASC
Velocidad máxima media en intervalos de 10 minutos(hora)
DESCASC
Precipitaciones diarias en mm
DESCASC
Precipitaciones de 00:00 a 06:00 en mm
DESCASC
Precipitaciones de 06:00 a 12:00 en mm
DESCASC
Precipitaciones de 12:00 a 18:00 en mm
DESCASC
Precipitaciones de 18:00 a 24:00 en mm
DESCASC
17-10-2019 26.1 (14:10) 18.8 (08:00) 22.4 7.78 (14:50) 3.89 (14:50) 0 0 0 0 0
16-10-2019 24.6 (17:30) 18.7 (03:30) 21.7 5 (16:40) 3.06 (14:20) 0.4 0 0 0.4 0
15-10-2019 26 (15:30) 18.7 (07:20) 22.4 5.83 (15:50) 3.61 (16:10) 0 0 0 0 0
14-10-2019 26 (14:20) 18.8 (05:40) 22.4 6.39 (14:30) 3.33 (16:20) 0 0 0 0 0
13-10-2019 25.4 (15:00) 18.4 (00:00) 21.9 8.33 (15:50) 4.17 (14:40) 0 0 0 0 0
12-10-2019 26.5 (16:00) 18.7 (00:00) 22.6 6.11 (15:20) 3.33 (16:00) 0 0 0 0 0
10-10-2019 27.2 (15:10) 18.8 (00:00) 23 6.67 (14:40) 3.61 (15:20) 0 0 0 0 0
09-10-2019 26.9 (16:30) 18.9 (00:00) 22.9 6.94 (14:30) 3.89 (14:40) 0 0 0 0 0
08-10-2019 27.1 (15:40) 19.3 (00:00) 23.2 6.39 (17:20) 3.61 (13:10) 0 0 0 0 0
07-10-2019 26.6 (15:40) 19 (00:00) 22.8 6.11 (14:10) 3.33 (14:50) 0 0 0 0 0
06-10-2019 27.2 (16:50) 20.6 (00:00) 23.9 7.5 (15:20) 3.61 (12:40) 0 0 0 0 0
05-10-2019 27.6 (16:10) 20.1 (05:50) 23.9 6.39 (14:20) 3.61 (18:10) 0 0 0 0 0
04-10-2019 27.4 (16:50) 20.2 (00:00) 23.8 6.67 (13:40) 3.33 (14:20) 0 0 0 0 0
03-10-2019 29.3 (15:40) 20.6 (00:00) 24.9 7.5 (17:10) 4.17 (17:10) 0 0 0 0 0
02-10-2019 30.8 (13:40) 20.2 (00:00) 25.5 5.56 (16:20) 2.78 (15:20) 0 0 0 0 0
01-10-2019 30.3 (16:30) 19.4 (00:00) 24.8 6.94 (13:00) 3.61 (13:00) 0 0 0 0 0
30-09-2019 29.2 (15:40) 19.7 (00:00) 24.5 7.78 (17:00) 4.44 (17:00) 0 0 0 0 0
29-09-2019 27.6 (15:30) 18.6 (00:00) 23.1 5.28 (13:30) 3.06 (13:30) 0 0 0 0 0
28-09-2019 28.1 (13:00) 18.9 (00:00) 23.5 7.5 (12:20) 4.17 (12:10) 0 0 0 0 0
27-09-2019 27.5 (15:40) 19.8 (00:00) 23.6 6.39 (14:10) 3.61 (14:10) 0 0 0 0 0
26-09-2019 27.7 (16:30) 20.2 (00:00) 24 6.11 (16:00) 3.33 (15:00) 0 0 0 0 0
25-09-2019 27.5 (16:10) 19.5 (00:00) 23.5 6.67 (14:30) 3.61 (15:30) 0 0 0 0 0
24-09-2019 27.4 (16:00) 19.6 (00:00) 23.5 6.39 (15:50) 3.61 (15:30) 0 0 0 0 0
23-09-2019 26.4 (17:30) 22.2 (00:00) 24.3 5.28 (14:40) 2.78 (14:40) 0 0 0 0 0
22-09-2019 28.2 (15:50) 18.8 (00:00) 23.5 7.22 (15:30) 4.17 (16:10) 0 0 0 0 0
21-09-2019 27.5 (16:10) 19.7 (00:00) 23.6 5.56 (18:20) 3.06 (17:40) 0 0 0 0 0
20-09-2019 26.9 (14:30) 18.7 (00:00) 22.8 5.28 (14:20) 3.33 (14:20) 0 0 0 0 0
19-09-2019 27.4 (15:30) 18.8 (00:00) 23.1 6.67 (14:10) 3.61 (15:00) 0 0 0 0 0

Gráficas

Temp. máximas Temp. mínimas Temp. medias Precipitaciones Rachas de viento máximas Velocidades máximas media en intervalos de 10 minutos

Datos horarios

Fecha y hora oficial Temperatura (ºC) Velocidad del viento (km/h) Dirección del viento Racha (km/h) Dirección de racha Precipitación (mm) Presión (hPa) Tendencia (hPa) Humedad (%)
2019-10-18 23:00:00 21.2 0 Calma 8 Sudoeste 0 -- -- 72
2019-10-18 22:00:00 21.1 4 Sudoeste 8 Sudoeste 0 -- -- 74
2019-10-18 21:00:00 21.3 0 Calma 10 Sudoeste 0 -- -- 71
2019-10-18 20:00:00 21.5 5 Sudoeste 14 Sudoeste 0 -- -- 72
2019-10-18 19:00:00 22.2 6 Oeste 17 Noroeste 0 -- -- 70
2019-10-18 18:00:00 24 8 Oeste 20 Sudoeste 0 -- -- 64
2019-10-18 17:00:00 24.7 8 Oeste 17 Sudoeste 0 -- -- 60
2019-10-18 16:00:00 25.3 8 Oeste 17 Oeste 0 -- -- 57
2019-10-18 15:00:00 25.1 7 Oeste 14 Sudoeste 0 -- -- 55
2019-10-18 14:00:00 24.6 11 Sudoeste 21 Sudoeste 0 -- -- 53
2019-10-18 13:00:00 24.7 8 Sudoeste 17 Sudoeste 0 -- -- 55
2019-10-18 12:00:00 23.9 6 Oeste 16 Oeste 0 -- -- 57
2019-10-18 11:00:00 22.7 5 Oeste 10 Oeste 0 -- -- 61
2019-10-18 10:00:00 20.2 0 Calma 3 Este 0 -- -- 68
2019-10-18 09:00:00 19.5 3 Este 6 Nordeste 0 -- -- 69
2019-10-18 08:00:00 19.1 3 Nordeste 6 Nordeste 0 -- -- 71
2019-10-18 07:00:00 19 3 Nordeste 9 Este 0 -- -- 73
2019-10-18 06:00:00 19 5 Este 10 Nordeste 0 -- -- 73
2019-10-18 05:00:00 19.2 6 Este 10 Este 0 -- -- 71
2019-10-18 04:00:00 19.3 -- -- -- -- 0 -- -- 71
2019-10-18 03:00:00 19.6 6 Este 8 Este 0 -- -- 71
2019-10-18 02:00:00 19.3 3 Nordeste 5 Norte 0 -- -- 74
2019-10-18 01:00:00 19.4 0 Calma 5 Nordeste 0 -- -- 71
2019-10-18 00:00:00 19.7 0 Calma 5 Sur 0 -- -- 71
2019-10-17 23:00:00 20.4 0 Calma 3 Sur 0 -- -- 69
2019-10-17 22:00:00 21.1 0 Calma 5 Sur 0 -- -- 68
2019-10-17 21:00:00 21.5 2 Sudoeste 8 Oeste 0 -- -- 66
2019-10-17 20:00:00 21.7 6 Sudoeste 13 Sudoeste 0 -- -- 63
2019-10-17 19:00:00 22.3 5 Sudoeste 16 Sur 0 -- -- 64
2019-10-17 18:00:00 22.9 7 Sudoeste 18 Sudoeste 0 -- -- 65
2019-10-17 17:00:00 25.1 9 Oeste 22 Oeste 0 -- -- 56
2019-10-17 16:00:00 25.5 9 Oeste 21 Sudoeste 0 -- -- 52
2019-10-17 15:00:00 25.6 14 Oeste 28 Oeste 0 -- -- 53
2019-10-17 14:00:00 25.9 10 Oeste 22 Oeste 0 -- -- 51
2019-10-17 13:00:00 25.2 9 Noroeste 18 Noroeste 0 -- -- 52
2019-10-17 12:00:00 24.4 9 Oeste 17 Oeste 0 -- -- 55
2019-10-17 11:00:00 23.5 6 Oeste 14 Sudoeste 0 -- -- 58
2019-10-17 10:00:00 20.7 0 Calma 3 Sudoeste 0 -- -- 69
2019-10-17 09:00:00 20 0 Calma 5 Nordeste 0 -- -- 72
2019-10-17 08:00:00 18.8 0 Calma 10 Nordeste 0 -- -- 75
2019-10-17 07:00:00 20.2 8 Nordeste 18 Nordeste 0 -- -- 69
2019-10-17 06:00:00 19.8 6 Nordeste 10 Nordeste 0 -- -- 72
2019-10-17 05:00:00 19.5 0 Calma 5 Noroeste 0 -- -- 74
2019-10-17 04:00:00 19.6 2 Nordeste 5 Norte 0 -- -- 76
2019-10-17 03:00:00 19.3 0 Calma 5 Nordeste 0 -- -- 75
2019-10-17 02:00:00 19.6 0 Calma 5 Sudeste 0 -- -- 72
2019-10-17 01:00:00 20.3 0 Calma 4 Norte 0 -- -- 70
2019-10-17 00:00:00 20.5 0 Calma 4 Este 0 -- -- 69
2019-10-16 23:00:00 21.1 2 Nordeste 5 Norte 0 -- -- 68
2019-10-16 22:00:00 21.2 0 Calma 4 Noroeste 0 -- -- 71
2019-10-16 21:00:00 21.3 0 Calma 5 Sudoeste 0 -- -- 72
2019-10-16 20:00:00 21.4 2 Sudoeste 6 Sudoeste 0 -- -- 72
2019-10-16 19:00:00 22.6 4 Oeste 12 Sudoeste 0 -- -- 67
2019-10-16 18:00:00 23.7 6 Oeste 12 Noroeste 0 -- -- 62
2019-10-16 17:00:00 23.2 5 Noroeste 18 Oeste 0 -- -- 62
2019-10-16 16:00:00 22.4 7 Noroeste 17 Oeste 0 -- -- 66
2019-10-16 15:00:00 21.8 8 Noroeste 18 Norte 0.2 -- -- 69
2019-10-16 14:00:00 21.8 2 Noroeste 8 Oeste 0.2 -- -- 76
2019-10-16 13:00:00 22.7 4 Oeste 12 Sudoeste 0 -- -- 67
2019-10-16 12:00:00 23.3 3 Oeste 15 Sudoeste 0 -- -- 61
2019-10-16 11:00:00 22.3 3 Sudoeste 8 Sudoeste 0 -- -- 67
2019-10-16 10:00:00 21 2 Norte 6 Noroeste 0 -- -- 71
2019-10-16 09:00:00 20.1 4 Nordeste 8 Norte 0 -- -- 72
2019-10-16 08:00:00 19.5 4 Nordeste 8 Nordeste 0 -- -- 73
2019-10-16 07:00:00 19 3 Nordeste 8 Nordeste 0 -- -- 72
2019-10-16 06:00:00 19.4 6 Este 10 Este 0 -- -- 67
2019-10-16 05:00:00 19.6 6 Este 8 Este 0 -- -- 69
2019-10-16 04:00:00 19.3 0 Calma 5 Este 0 -- -- 70
2019-10-16 03:00:00 18.9 0 Calma 5 Este 0 -- -- 71
2019-10-16 02:00:00 19.1 0 Calma 5 Este 0 -- -- 71
2019-10-16 01:00:00 20 2 Nordeste 8 Sudeste 0 -- -- 66
2019-10-16 00:00:00 20.1 0 Calma 10 Sudeste 0 -- -- 66
2019-10-15 23:00:00 20.7 0 Calma 8 Nordeste 0 -- -- 65
2019-10-15 22:00:00 21.4 5 Nordeste 8 Nordeste 0 -- -- 63
2019-10-15 21:00:00 21.5 0 Calma 6 Norte 0 -- -- 62
2019-10-15 20:00:00 22.2 3 Norte 5 Norte 0 -- -- 60
2019-10-15 19:00:00 23.1 4 Oeste 15 Sudoeste 0 -- -- 59
2019-10-15 18:00:00 23.9 5 Oeste 19 Oeste 0 -- -- 58
2019-10-15 17:00:00 25.1 9 Oeste 20 Oeste 0 -- -- 60
2019-10-15 16:00:00 25.9 10 Oeste 21 Oeste 0 -- -- 53
2019-10-15 15:00:00 25.5 9 Oeste 19 Oeste 0 -- -- 53
2019-10-15 14:00:00 25.8 9 Oeste 15 Sudoeste 0 -- -- 51
2019-10-15 13:00:00 25.5 8 Oeste 16 Oeste 0 -- -- 52
2019-10-15 12:00:00 24.6 7 Oeste 14 Oeste 0 -- -- 56
2019-10-15 11:00:00 23.7 6 Sudoeste 11 Sudoeste 0 -- -- 58
2019-10-15 10:00:00 20.1 3 Sudoeste 5 Sudoeste 0 -- -- 71
2019-10-15 09:00:00 19 0 Calma 11 Este 0 -- -- 75
2019-10-15 08:00:00 19.2 8 Este 12 Este 0 -- -- 72
2019-10-15 07:00:00 19.6 3 Este 12 Nordeste 0 -- -- 69
2019-10-15 06:00:00 19.7 5 Este 8 Este 0 -- -- 69
2019-10-15 05:00:00 19.9 0 Calma 8 Norte 0 -- -- 75
2019-10-15 04:00:00 20.1 2 Noroeste 7 Noroeste 0 -- -- 75
2019-10-15 03:00:00 20.6 0 Calma 3 Norte 0 -- -- 72
2019-10-15 02:00:00 20.7 0 Calma 6 Noroeste 0 -- -- 72
2019-10-15 01:00:00 20.3 3 Norte 8 Norte 0 -- -- 73
2019-10-15 00:00:00 19.9 0 Calma 6 Noroeste 0 -- -- 73
2019-10-14 23:00:00 20.6 2 Nordeste 9 Sur 0 -- -- 68
2019-10-14 22:00:00 21 0 Calma 3 Sur 0 -- -- 66
2019-10-14 21:00:00 21.7 0 Calma 6 Noroeste 0 -- -- 66
2019-10-14 20:00:00 22.6 2 Oeste 8 Noroeste 0 -- -- 63
2019-10-14 19:00:00 24 5 Oeste 13 Sudoeste 0 -- -- 60
2019-10-14 18:00:00 24.9 7 Sudoeste 17 Sudoeste 0 -- -- 61
2019-10-14 17:00:00 24.3 7 Oeste 20 Sudoeste 0 -- -- 62
2019-10-14 16:00:00 25 8 Oeste 18 Oeste 0 -- -- 60
2019-10-14 15:00:00 24.8 10 Oeste 23 Oeste 0 -- -- 60
2019-10-14 14:00:00 25.2 9 Norte 18 Sudoeste 0 -- -- 60
2019-10-14 13:00:00 24.6 8 Oeste 16 Sudoeste 0 -- -- 65
2019-10-14 12:00:00 24.9 7 Oeste 13 Oeste 0 -- -- 63
2019-10-14 11:00:00 23.2 4 Oeste 10 Sudoeste 0 -- -- 68
2019-10-14 10:00:00 20.8 3 Sudeste 6 Sudoeste 0 -- -- 73
2019-10-14 09:00:00 19.4 0 Calma 6 Este 0 -- -- 76
2019-10-14 08:00:00 18.8 0 Calma 4 Nordeste 0 -- -- 78
2019-10-14 07:00:00 18.9 0 Calma 5 Este 0 -- -- 77
2019-10-14 06:00:00 18.8 3 Nordeste 7 Este 0 -- -- 74
2019-10-14 05:00:00 19.4 3 Este 9 Este 0 -- -- 72
2019-10-14 04:00:00 19.4 0 Calma 6 Sudeste 0 -- -- 72
2019-10-14 03:00:00 19.8 2 Nordeste 12 Nordeste 0 -- -- 71
2019-10-14 02:00:00 20.4 4 Norte 10 Este 0 -- -- 72
2019-10-14 01:00:00 20.8 5 Nordeste 20 Norte 0 -- -- 70
2019-10-14 00:00:00 21.2 6 Este 21 Este 0 -- -- 74
2019-10-13 23:00:00 21.5 7 Este 21 Este 0 -- -- 71
2019-10-13 22:00:00 21.8 5 Este 19 Nordeste 0 -- -- 66
2019-10-13 21:00:00 22.2 4 Nordeste 15 Nordeste 0 -- -- 69
2019-10-13 20:00:00 22.2 6 Oeste 20 Oeste 0 -- -- 69
2019-10-13 19:00:00 23.8 10 Oeste 27 Oeste -- -- -- 64
2019-10-13 18:00:00 24.3 11 Noroeste 26 Noroeste 0 -- -- 62
2019-10-13 17:00:00 25 12 Oeste 26 Sudoeste 0 -- -- 61
2019-10-13 16:00:00 24.9 15 Sudoeste 30 Noroeste 0 -- -- 58
2019-10-13 15:00:00 25.4 14 Oeste 28 Oeste 0 -- -- 58
2019-10-13 14:00:00 24.9 13 Oeste 26 Oeste 0 -- -- 61
2019-10-13 13:00:00 24.7 10 Oeste 21 Oeste 0 -- -- 60
2019-10-13 12:00:00 24.6 8 Oeste 15 Oeste 0 -- -- 58
2019-10-13 11:00:00 23.9 6 Oeste 15 Sudoeste 0 -- -- 56
2019-10-13 10:00:00 21.1 4 Noroeste 13 Sudoeste 0 -- -- 62
2019-10-13 09:00:00 19 2 Oeste 7 Noroeste 0 -- -- 67
2019-10-13 08:00:00 18.7 2 Norte 8 Norte 0 -- -- 72
2019-10-13 07:00:00 19.6 3 Noroeste 9 Norte 0 -- -- 75
2019-10-13 06:00:00 19.7 3 Noroeste 13 Norte 0 -- -- 76
2019-10-13 05:00:00 19.1 0 Calma 4 Noroeste 0 -- -- 69
2019-10-13 04:00:00 19.7 3 Este 8 Este 0 -- -- 68
2019-10-13 03:00:00 20.1 2 Nordeste 6 Nordeste 0 -- -- 66
2019-10-13 02:00:00 19.8 3 Este 4 Este 0 -- -- 67
2019-10-13 01:00:00 19.5 0 Calma 5 Este 0 -- -- 69
2019-10-13 00:00:00 20.9 4 Este 10 Este 0 -- -- 68
2019-10-12 23:00:00 21.2 2 Nordeste 11 Este 0 -- -- 67
2019-10-12 22:00:00 21.2 2 Noroeste 6 Sudoeste 0 -- -- 66
2019-10-12 21:00:00 21.9 0 Calma 10 Noroeste 0 -- -- 61
2019-10-12 20:00:00 22.7 4 Oeste 12 Sudoeste 0 -- -- 57
2019-10-12 19:00:00 24.6 6 Sudoeste 17 Oeste 0 -- -- 54
2019-10-12 18:00:00 25.7 7 Noroeste 17 Noroeste 0 -- -- 53
2019-10-12 17:00:00 25 8 Oeste 22 Oeste 0 -- -- 55
2019-10-12 16:00:00 26.5 12 Oeste 22 Oeste 0 -- -- 52
2019-10-12 15:00:00 26.2 10 Sudoeste 18 Oeste 0 -- -- 51
2019-10-12 14:00:00 25.4 8 Sudoeste 19 Sudoeste 0 -- -- 53
2019-10-12 13:00:00 25.3 7 Oeste 13 Oeste 0 -- -- 53
2019-10-12 12:00:00 23.8 6 Oeste 13 Oeste 0 -- -- 59
2019-10-12 11:00:00 22.9 2 Sudeste 9 Sudoeste 0 -- -- 65
2019-10-12 10:00:00 21.9 0 Calma 3 Oeste 0 -- -- 70
2019-10-12 09:00:00 20.7 0 Calma 8 Norte 0 -- -- 76
2019-10-12 08:00:00 19.6 2 Este 4 Norte 0 -- -- 78
2019-10-12 07:00:00 19.5 0 Calma 5 Nordeste 0 -- -- 75
2019-10-12 06:00:00 20.1 2 Nordeste 10 Nordeste 0 -- -- 72
2019-10-12 05:00:00 21 6 Nordeste 10 Norte 0 -- -- 73
2019-10-12 04:00:00 21.5 3 Este 8 Nordeste 0 -- -- 73
2019-10-12 03:00:00 21.4 0 Calma 7 Noroeste 0 -- -- 76
2019-10-12 02:00:00 21.7 2 Noroeste 10 Noroeste 0 -- -- 74
2019-10-12 01:00:00 22 6 Noroeste 13 Oeste 0 -- -- 71
2019-10-12 00:00:00 22.1 3 Este 9 Sudoeste 0 -- -- 72
2019-10-11 23:00:00 22.1 5 Este 15 Nordeste 0 -- -- 74
2019-10-11 22:00:00 22 5 Norte 16 Nordeste 0 -- -- 75
2019-10-11 21:00:00 22.2 6 Sudoeste 12 Sudoeste 0 -- -- 73
2019-10-11 20:00:00 22.8 6 Oeste 19 Sudoeste 0 -- -- 69
2019-10-11 19:00:00 24.4 8 Sudoeste 19 Sudoeste 0 -- -- 61
2019-10-11 18:00:00 24.1 7 Oeste 18 Sudoeste 0 -- -- 64
2019-10-11 17:00:00 23.9 9 Oeste 18 Sudoeste 0 -- -- 66
2019-10-11 16:00:00 25.4 10 Sudoeste 20 Sudoeste 0 -- -- 59
2019-10-11 15:00:00 25.9 10 Sudoeste 21 Sudoeste 0 -- -- 60
2019-10-11 14:00:00 26.3 9 Sudoeste 21 Oeste 0 -- -- 57
2019-10-11 13:00:00 25.5 10 Oeste 23 Sudoeste 0 -- -- 62
2019-10-11 12:00:00 22.9 6 Oeste 14 Oeste 0 -- -- 69
2019-10-11 11:00:00 23.9 8 Oeste 15 Oeste 0 -- -- 63
2019-10-11 10:00:00 21.3 3 Oeste 6 Oeste 0 -- -- 64
2019-10-11 09:00:00 20.6 3 Este 16 Nordeste 0 -- -- 62
2019-10-11 08:00:00 20 8 Nordeste 13 Nordeste 0 -- -- 75
2019-10-11 07:00:00 19.5 5 Nordeste 9 Nordeste 0 -- -- 79
2019-10-11 06:00:00 19.6 3 Sudeste 4 Este 0 -- -- 83
2019-10-11 05:00:00 20.3 0 Calma 3 Sur 0 -- -- 79
2019-10-11 04:00:00 20.5 0 Calma 5 Oeste 0 -- -- 78
2019-10-11 03:00:00 20.6 0 Calma 6 Noroeste 0 -- -- 77
2019-10-11 02:00:00 21.2 2 Norte 7 Norte 0 -- -- 75
2019-10-11 01:00:00 21 3 Oeste 9 Sudoeste 0 -- -- 75
2019-10-11 00:00:00 21.2 0 Calma 4 Norte 0 -- -- 76
2019-10-10 23:00:00 21.2 2 Nordeste 5 Sur 0 -- -- 75
2019-10-10 22:00:00 21.6 0 Calma 2 Sur 0 -- -- 75
2019-10-10 21:00:00 22 0 Calma 6 Sudoeste 0 -- -- 72
2019-10-10 20:00:00 22.7 2 Oeste 11 Noroeste 0 -- -- 70
2019-10-10 19:00:00 23.5 9 Oeste 17 Oeste 0 -- -- 69
2019-10-10 18:00:00 23.4 8 Oeste 21 Noroeste 0 -- -- 68
2019-10-10 17:00:00 25.7 11 Oeste 21 Oeste 0 -- -- 60
2019-10-10 16:00:00 24.9 10 Oeste 21 Oeste 0 -- -- 62
2019-10-10 15:00:00 26.9 9 Oeste 24 Oeste 0 -- -- 56
2019-10-10 14:00:00 26.1 9 Oeste 19 Noroeste 0 -- -- 58
2019-10-10 13:00:00 26 10 Oeste 20 Sudoeste 0 -- -- 58
2019-10-10 12:00:00 25.1 10 Sudoeste 17 Sudoeste 0 -- -- 59
2019-10-10 11:00:00 23.7 6 Oeste 14 Sudoeste 0 -- -- 63
2019-10-10 10:00:00 21.5 0 Calma 9 Este 0 -- -- 71
2019-10-10 09:00:00 20.7 4 Norte 12 Norte 0 -- -- 71
2019-10-10 08:00:00 20.2 3 Nordeste 12 Nordeste 0 -- -- 72
2019-10-10 07:00:00 19.7 5 Norte 12 Norte 0 -- -- 77
2019-10-10 06:00:00 19.1 0 Calma 7 Este 0 -- -- 73
2019-10-10 05:00:00 20.2 0 Calma 8 Nordeste 0 -- -- 71
2019-10-10 04:00:00 20.9 2 Norte 9 Oeste 0 -- -- 73
2019-10-10 03:00:00 20.8 3 Noroeste 10 Nordeste 0 -- -- 74
2019-10-10 02:00:00 20.6 4 Norte 10 Norte 0 -- -- 76
2019-10-10 01:00:00 20 3 Norte 8 Norte 0 -- -- 78
2019-10-10 00:00:00 20.7 2 Nordeste 7 Nordeste 0 -- -- 76
2019-10-09 23:00:00 20.5 0 Calma 4 Sur 0 -- -- 74
2019-10-09 22:00:00 21 0 Calma 6 Sudoeste 0 -- -- 76
2019-10-09 21:00:00 21.3 0 Calma 8 Oeste 0 -- -- 72
2019-10-09 20:00:00 22.4 3 Oeste 13 Norte 0 -- -- 69
2019-10-09 19:00:00 24.4 6 Noroeste 17 Noroeste 0 -- -- 61
2019-10-09 18:00:00 25.8 8 Oeste 18 Oeste 0 -- -- 58
2019-10-09 17:00:00 26.3 10 Oeste 18 Noroeste 0 -- -- 56
2019-10-09 16:00:00 26.4 10 Oeste 23 Sudoeste 0 -- -- 57
2019-10-09 15:00:00 26.7 13 Sudoeste 25 Sudoeste 0 -- -- 57
2019-10-09 14:00:00 25.6 9 Oeste 19 Oeste 0 -- -- 60
2019-10-09 13:00:00 25.3 9 Oeste 17 Oeste 0 -- -- 61
2019-10-09 12:00:00 24.7 7 Oeste 13 Sudoeste 0 -- -- 64
2019-10-09 11:00:00 23.6 4 Oeste 9 Sudoeste 0 -- -- 68
2019-10-09 10:00:00 20.5 0 Calma 4 Sudoeste 0 -- -- 80
2019-10-09 09:00:00 19.4 4 Este 6 Nordeste 0 -- -- 78
2019-10-09 08:00:00 19.2 2 Nordeste 9 Este 0 -- -- 77
2019-10-09 07:00:00 19.5 5 Este 9 Norte 0 -- -- 82
2019-10-09 06:00:00 19.5 6 Norte 9 Norte 0 -- -- 84
2019-10-09 05:00:00 19.4 5 Norte 10 Nordeste 0 -- -- 85
2019-10-09 04:00:00 19.4 3 Noroeste 9 Norte 0 -- -- 85
2019-10-09 03:00:00 20.3 4 Nordeste 12 Sudeste 0 -- -- 81
2019-10-09 02:00:00 20.6 0 Calma 5 Sur 0 -- -- 83
2019-10-09 01:00:00 20.1 0 Calma 6 Oeste 0 -- -- 84
2019-10-09 00:00:00 20.4 0 Calma 4 Sur 0 -- -- 81
2019-10-08 23:00:00 20.9 0 Calma 4 Sur 0 -- -- 79
2019-10-08 22:00:00 20.9 0 Calma 8 Noroeste 0 -- -- 79
2019-10-08 21:00:00 21.4 3 Oeste 7 Noroeste 0 -- -- 76
2019-10-08 20:00:00 22.6 2 Norte 10 Oeste 0 -- -- 71
2019-10-08 19:00:00 24.5 6 Sudoeste 16 Sudoeste 0 -- -- 65
2019-10-08 18:00:00 25.5 10 Sudoeste 23 Sudoeste 0 -- -- 62
2019-10-08 17:00:00 26.3 9 Sudoeste 21 Sudoeste 0 -- -- 60
2019-10-08 16:00:00 26.8 10 Oeste 20 Noroeste 0 -- -- 59
2019-10-08 15:00:00 26.9 10 Oeste 19 Noroeste 0 -- -- 58
2019-10-08 14:00:00 25.6 13 Oeste 22 Oeste 0 -- -- 65
2019-10-08 13:00:00 25.2 9 Sudoeste 21 Sudoeste 0 -- -- 64
2019-10-08 12:00:00 24.8 8 Sudoeste 17 Sudoeste 0 -- -- 63
2019-10-08 11:00:00 23.6 7 Oeste 14 Oeste 0 -- -- 68
2019-10-08 10:00:00 21.5 4 Norte 9 Norte 0 -- -- 79
2019-10-08 09:00:00 20.3 3 Este 6 Este 0 -- -- 82
2019-10-08 08:00:00 19.7 4 Nordeste 6 Este 0 -- -- 86
2019-10-08 07:00:00 19.8 5 Este 6 Este 0 -- -- 83
2019-10-08 06:00:00 19.9 4 Este 6 Nordeste 0 -- -- 85
2019-10-08 05:00:00 19.6 2 Nordeste 5 Sudoeste 0 -- -- 83
2019-10-08 04:00:00 20.2 2 Este 5 Nordeste 0 -- -- 81
2019-10-08 03:00:00 20.3 3 Nordeste 5 Este 0 -- -- 82
2019-10-08 02:00:00 20.3 0 Calma 8 Noroeste 0 -- -- 79
2019-10-08 01:00:00 20.3 3 Norte 10 Norte 0 -- -- 81
2019-10-08 00:00:00 20.4 0 Calma 5 Este 0 -- -- 79
2019-10-07 23:00:00 21 4 Este 6 Este 0 -- -- 77
2019-10-07 22:00:00 21.1 0 Calma -- -- 0 -- -- 78
2019-10-07 21:00:00 21.6 0 Calma 4 Sudoeste 0 -- -- 74
2019-10-07 20:00:00 22.7 3 Sudoeste 9 Sudoeste 0 -- -- 70
2019-10-07 19:00:00 24.9 5 Oeste 12 Sudoeste 0 -- -- 64
2019-10-07 18:00:00 26.5 5 Oeste 14 Sudoeste 0 -- -- 59
2019-10-07 17:00:00 26.5 8 Oeste 22 Sudoeste 0 -- -- 59
2019-10-07 16:00:00 26.3 12 Sudoeste 20 Sudoeste 0 -- -- 59
2019-10-07 15:00:00 25.8 12 Sudoeste 22 Sudoeste 0 -- -- 61
2019-10-07 14:00:00 26.4 9 Oeste 21 Sudoeste 0 -- -- 58
2019-10-07 13:00:00 25.8 8 Sudoeste 18 Sudoeste 0 -- -- 57
2019-10-07 12:00:00 25.4 7 Sudoeste 14 Oeste 0 -- -- 60
2019-10-07 11:00:00 23.8 6 Sudoeste 14 Sudoeste 0 -- -- 65
2019-10-07 10:00:00 21.6 3 Norte 13 Nordeste 0 -- -- 75
2019-10-07 09:00:00 20.3 9 Nordeste 15 Nordeste 0 -- -- 78
2019-10-07 08:00:00 19.8 3 Nordeste 13 Norte 0 -- -- 81
2019-10-07 07:00:00 20 8 Norte 15 Noroeste 0 -- -- 81
2019-10-07 06:00:00 19.2 0 Calma 8 Nordeste 0 -- -- 80
2019-10-07 05:00:00 19.9 5 Este 8 Este 0 -- -- 80
2019-10-07 04:00:00 19.4 0 Calma 3 Este 0 -- -- 83
2019-10-07 03:00:00 19.2 0 Calma 2 Este 0 -- -- 84
2019-10-07 02:00:00 19.9 0 Calma 4 Norte 0 -- -- 79
2019-10-07 01:00:00 20.3 2 Norte 5 Norte 0 -- -- 80
2019-10-07 00:00:00 20.6 0 Calma 5 Noroeste 0 -- -- 78
2019-10-06 23:00:00 21.3 0 Calma 7 Nordeste 0 -- -- 74
2019-10-06 22:00:00 21.6 0 Calma 9 Noroeste 0 -- -- 73
2019-10-06 21:00:00 22.5 6 Noroeste 18 Oeste 0 -- -- 71
2019-10-06 20:00:00 22.9 4 Noroeste 13 Norte 0 -- -- 70
2019-10-06 19:00:00 25 5 Oeste 16 Sudoeste 0 -- -- 63
2019-10-06 18:00:00 26.2 8 Sudoeste 21 Oeste 0 -- -- 59
2019-10-06 17:00:00 26.9 10 Sudoeste 16 Oeste 0 -- -- 58
2019-10-06 16:00:00 26.5 10 Oeste 27 Oeste 0 -- -- 59
2019-10-06 15:00:00 26.7 13 Oeste 24 Oeste 0 -- -- 59
2019-10-06 14:00:00 26.1 8 Oeste 21 Sudoeste 0 -- -- 61
2019-10-06 13:00:00 26 13 Sudoeste 22 Sudoeste 0 -- -- 61
2019-10-06 12:00:00 25.3 8 Oeste 17 Sudoeste 0 -- -- 64
2019-10-06 11:00:00 24.1 6 Oeste 13 Oeste 0 -- -- 68
2019-10-06 10:00:00 22.4 4 Este 8 Oeste 0 -- -- 72
2019-10-06 09:00:00 21.7 2 Noroeste 10 Noroeste 0 -- -- 75
2019-10-06 08:00:00 21.3 4 Noroeste 11 Oeste 0 -- -- 77
2019-10-06 07:00:00 21.3 0 Calma 7 Sudoeste 0 -- -- 78
2019-10-06 06:00:00 21.5 0 Calma 6 Sudoeste 0 -- -- 78
2019-10-06 05:00:00 21.7 0 Calma 6 Nordeste 0 -- -- 78
2019-10-06 04:00:00 21.7 3 Norte 10 Noroeste 0 -- -- 78
2019-10-06 03:00:00 21.4 0 Calma 4 Noroeste 0 -- -- 80
2019-10-06 02:00:00 21.6 0 Calma 5 Oeste 0 -- -- 80
2019-10-06 01:00:00 21.6 0 Calma 7 Noroeste 0 -- -- 82
2019-10-06 00:00:00 21.7 3 Noroeste 9 Noroeste 0 -- -- 82
2019-10-05 23:00:00 22.2 4 Noroeste 8 Noroeste 0 -- -- 79
2019-10-05 22:00:00 22.5 0 Calma 8 Sudoeste 0 -- -- 79
2019-10-05 21:00:00 23.2 4 Sudoeste 12 Sudoeste 0 -- -- 78
2019-10-05 20:00:00 23.6 5 Sudoeste 15 Noroeste 0 -- -- 77
2019-10-05 19:00:00 25.3 7 Oeste 21 Sudoeste 0 -- -- 70
2019-10-05 18:00:00 26.9 10 Sudoeste 21 Sudoeste 0 -- -- 63
2019-10-05 17:00:00 27.6 7 Oeste 20 Oeste 0 -- -- 60
2019-10-05 16:00:00 27.2 12 Sudoeste 22 Sudoeste 0 -- -- 62
2019-10-05 15:00:00 27.2 11 Sudoeste 23 Sudoeste 0 -- -- 61
2019-10-05 14:00:00 27.5 10 Sudoeste 19 Sudoeste 0 -- -- 59
2019-10-05 13:00:00 26.6 9 Sudoeste 19 Sur 0 -- -- 62
2019-10-05 12:00:00 25.6 10 Sudoeste 18 Sudoeste 0 -- -- 65
2019-10-05 11:00:00 24.2 4 Sudoeste 21 Sudoeste 0 -- -- 69
2019-10-05 10:00:00 22.6 5 Noroeste 15 Nordeste 0 -- -- 75
2019-10-05 09:00:00 21.2 6 Este 9 Nordeste 0 -- -- 81
2019-10-05 08:00:00 20.9 7 Norte 19 Norte 0 -- -- 81
2019-10-05 07:00:00 20.2 4 Norte 10 Nordeste 0 -- -- 84
2019-10-05 06:00:00 20.2 4 Nordeste 9 Nordeste 0 -- -- 84
2019-10-05 05:00:00 20.5 4 Nordeste 15 Norte 0 -- -- 83
2019-10-05 04:00:00 20.6 8 Norte 14 Norte 0 -- -- 84
2019-10-05 03:00:00 20.3 3 Norte 8 Norte 0 -- -- 87
2019-10-05 02:00:00 20.3 0 Calma 6 Noroeste 0 -- -- 86
2019-10-05 01:00:00 20.8 3 Norte 8 Norte 0 -- -- 85
2019-10-05 00:00:00 21.2 3 Norte 8 Noroeste 0 -- -- 83
2019-10-04 23:00:00 21.2 2 Norte 5 Noroeste 0 -- -- 84
2019-10-04 22:00:00 21.7 2 Oeste 10 Noroeste 0 -- -- 81
2019-10-04 21:00:00 22.3 4 Norte 9 Noroeste 0 -- -- 79
2019-10-04 20:00:00 23.6 5 Oeste 10 Oeste 0 -- -- 73
2019-10-04 19:00:00 25.9 4 Oeste 19 Sudoeste 0 -- -- 66
2019-10-04 18:00:00 26.4 12 Sudoeste 22 Sudoeste 0 -- -- 66
2019-10-04 17:00:00 27.4 9 Oeste 19 Oeste 0 -- -- 62
2019-10-04 16:00:00 27.1 9 Oeste 18 Noroeste 0 -- -- 61
2019-10-04 15:00:00 26.6 10 Noroeste 21 Oeste 0 -- -- 64
2019-10-04 14:00:00 27 8 Sudoeste 24 Sudoeste 0 -- -- 62
2019-10-04 13:00:00 26.5 9 Sudoeste 22 Sudoeste 0 -- -- 64
2019-10-04 12:00:00 25.8 8 Oeste 16 Noroeste 0 -- -- 65
2019-10-04 11:00:00 24.8 6 Oeste 14 Oeste 0 -- -- 69
2019-10-04 10:00:00 22.1 3 Este 6 Este 0 -- -- 78
2019-10-04 09:00:00 20.6 2 Este 6 Nordeste 0 -- -- 83
2019-10-04 08:00:00 20.5 3 Norte 9 Norte 0 -- -- 83
2019-10-04 07:00:00 20.4 6 Nordeste 9 Nordeste 0 -- -- 87
2019-10-04 06:00:00 20.4 2 Oeste 7 Sudoeste 0 -- -- 86
2019-10-04 05:00:00 20.5 3 Nordeste 12 Oeste 0 -- -- 88
2019-10-04 04:00:00 20.7 4 Sudoeste 12 Sur 0 -- -- 86
2019-10-04 03:00:00 20.9 4 Sur 8 Sudeste 0 -- -- 86
2019-10-04 02:00:00 20.7 3 Norte 9 Norte 0 -- -- 87
2019-10-04 01:00:00 21 0 Calma 6 Nordeste 0 -- -- 85
2019-10-04 00:00:00 21.1 2 Norte 6 Norte 0 -- -- 87
2019-10-03 23:00:00 21.8 0 Calma 7 Sudoeste 0 -- -- 84
2019-10-03 22:00:00 22 2 Este 5 Norte 0 -- -- 84
2019-10-03 21:00:00 22.5 5 Sudoeste 14 Sudoeste 0 -- -- 83
2019-10-03 20:00:00 23.4 7 Sudoeste 12 Sur 0 -- -- 79
2019-10-03 19:00:00 24.4 5 Sudoeste 10 Sudoeste 0 -- -- 75
2019-10-03 18:00:00 27 6 Sudoeste 27 Oeste 0 -- -- 65
2019-10-03 17:00:00 27.7 13 Oeste 24 Sudoeste 0 -- -- 62
2019-10-03 16:00:00 27.8 11 Sudoeste 22 Sudoeste 0 -- -- 62
2019-10-03 15:00:00 28.6 11 Sudoeste 21 Sudoeste 0 -- -- 60
2019-10-03 14:00:00 28.1 8 Sudoeste 20 Sudoeste 0 -- -- 61
2019-10-03 13:00:00 27.6 9 Sudoeste 20 Sudoeste 0 -- -- 63
2019-10-03 12:00:00 27 9 Sudoeste 18 Sudoeste 0 -- -- 62
2019-10-03 11:00:00 26.6 4 Oeste 11 Sudoeste 0 -- -- 66
2019-10-03 10:00:00 23.5 3 Sur 6 Este 0 -- -- 73
2019-10-03 09:00:00 21.2 2 Nordeste 8 Este 0 -- -- 75
2019-10-03 08:00:00 21.7 4 Nordeste 9 Este 0 -- -- 75
2019-10-03 07:00:00 20.9 0 Calma 8 Este 0 -- -- 81
2019-10-03 06:00:00 21.6 4 Este 6 Este 0 -- -- 78
2019-10-03 05:00:00 21.8 5 Este 8 Este 0 -- -- 78
2019-10-03 04:00:00 21.4 3 Este 8 Este 0 -- -- 84
2019-10-03 03:00:00 21.3 3 Este 9 Sudeste 0 -- -- 84
2019-10-03 02:00:00 22 5 Este 7 Este 0 -- -- 79
2019-10-03 01:00:00 21.6 2 Este 4 Este 0 -- -- 82
2019-10-03 00:00:00 21.5 0 Calma 6 Sur 0 -- -- 85
2019-10-02 23:00:00 22.1 3 Este 6 Sudeste 0 -- -- 89
2019-10-02 22:00:00 22.4 0 Calma 5 Sudeste 0 -- -- 82
2019-10-02 21:00:00 24 0 Calma 5 Sudeste 0 -- -- 75
2019-10-02 20:00:00 25.2 0 Calma 6 Oeste 0 -- -- 71
2019-10-02 19:00:00 27.2 3 Oeste 8 Sudoeste 0 -- -- 63
2019-10-02 18:00:00 28.4 5 Oeste 11 Sudoeste 0 -- -- 61
2019-10-02 17:00:00 27.8 8 Sudoeste 20 Sudoeste 0 -- -- 65
2019-10-02 16:00:00 29.2 9 Sudoeste 18 Sudoeste 0 -- -- 59
2019-10-02 15:00:00 30.5 9 Oeste 16 Oeste 0 -- -- 51
2019-10-02 14:00:00 30.4 6 Sudoeste 14 Sudoeste 0 -- -- 49
2019-10-02 13:00:00 30.3 6 Oeste 10 Sudoeste 0 -- -- 48
2019-10-02 12:00:00 28.2 5 Sudoeste 12 Oeste 0 -- -- 61
2019-10-02 11:00:00 27.1 5 Sudoeste 8 Oeste 0 -- -- 64
2019-10-02 10:00:00 23.5 3 Nordeste 6 Nordeste 0 -- -- 67
2019-10-02 09:00:00 20.6 4 Este 10 Sur 0 -- -- 83
2019-10-02 08:00:00 20.4 0 Calma 5 Este 0 -- -- 72
2019-10-02 07:00:00 20.6 2 Este 6 Este 0 -- -- 82
2019-10-02 06:00:00 21.4 0 Calma 6 Este 0 -- -- 68
2019-10-02 05:00:00 20.7 0 Calma 5 Este 0 -- -- 74
2019-10-02 04:00:00 21.4 3 Sudeste 6 Sudeste 0 -- -- 73
2019-10-02 03:00:00 21.7 4 Este 14 Nordeste 0 -- -- 72
2019-10-02 02:00:00 21.2 3 Norte 10 Norte 0 -- -- 75
2019-10-02 01:00:00 21.5 0 Calma 5 Sudeste 0 -- -- 82
2019-10-02 00:00:00 21.3 0 Calma 4 Nordeste 0 -- -- 79
2019-10-01 23:00:00 22.3 0 Calma 4 Noroeste 0 -- -- 80
2019-10-01 22:00:00 23 3 Sudeste 6 Sudoeste 0 -- -- 80
2019-10-01 21:00:00 24.1 0 Calma 3 Sudoeste 0 -- -- 72
2019-10-01 20:00:00 25.4 0 Calma 7 Sudoeste 0 -- -- 72
2019-10-01 19:00:00 27.9 5 Oeste 10 Oeste 0 -- -- 59
2019-10-01 18:00:00 30.1 6 Oeste 12 Oeste 0 -- -- 51
2019-10-01 17:00:00 30.2 8 Sudoeste 13 Oeste 0 -- -- 51
2019-10-01 16:00:00 30 6 Sudoeste 17 Sudoeste 0 -- -- 55
2019-10-01 15:00:00 28.8 5 Sudoeste 22 Sudoeste 0 -- -- 58
2019-10-01 14:00:00 28.6 11 Oeste 22 Oeste 0 -- -- 57
2019-10-01 13:00:00 28.5 13 Sudoeste 25 Sudoeste 0 -- -- 55
2019-10-01 12:00:00 27.7 9 Oeste 17 Sudoeste 0 -- -- 58
2019-10-01 11:00:00 26.5 3 Sudoeste 6 Sur 0 -- -- 51
2019-10-01 10:00:00 22.5 0 Calma 10 Sudoeste 0 -- -- 80
2019-10-01 09:00:00 21.6 2 Nordeste 8 Este 0 -- -- 69
2019-10-01 08:00:00 19.7 4 Este 8 Nordeste 0 -- -- 76
2019-10-01 07:00:00 20 2 Este 6 Oeste 0 -- -- 88
2019-10-01 06:00:00 21 2 Sudeste 8 Sudeste 0 -- -- 70
2019-10-01 05:00:00 21.9 5 Este 10 Este 0 -- -- 71
2019-10-01 04:00:00 21.3 4 Nordeste 8 Este 0 -- -- 77
2019-10-01 03:00:00 21 4 Este 9 Este 0 -- -- 82
2019-10-01 02:00:00 20.3 2 Sudeste 6 Sudoeste 0 -- -- 88
2019-10-01 01:00:00 21.1 2 Sudeste 4 Este 0 -- -- 84
2019-10-01 00:00:00 21.4 0 Calma 9 Noroeste 0 -- -- 84
2019-09-30 23:00:00 21.8 4 Noroeste 14 Oeste 0 -- -- 85
2019-09-30 22:00:00 22 3 Norte 7 Noroeste 0 -- -- 82
2019-09-30 21:00:00 22.7 3 Oeste 24 Sudoeste 0 -- -- 82
2019-09-30 20:00:00 23.7 5 Este 16 Este 0 -- -- 77
2019-09-30 19:00:00 25.6 7 Oeste 19 Oeste 0 -- -- 71
2019-09-30 18:00:00 27.4 9 Oeste 28 Sudoeste 0 -- -- 64
2019-09-30 17:00:00 28.3 16 Sudoeste 28 Sudoeste 0 -- -- 61
2019-09-30 16:00:00 28.8 13 Oeste 24 Sudoeste 0 -- -- 57
2019-09-30 15:00:00 28.8 7 Oeste 17 Oeste 0 -- -- 60
2019-09-30 14:00:00 28.5 6 Oeste 15 Oeste 0 -- -- 60
2019-09-30 13:00:00 28 8 Sudoeste 17 Sudoeste 0 -- -- 58
2019-09-30 12:00:00 25.8 8 Sudoeste 20 Sudoeste 0 -- -- 71
2019-09-30 11:00:00 25.7 8 Sudoeste 15 Sudoeste 0 -- -- 71
2019-09-30 10:00:00 22.9 4 Norte 13 Sudeste 0 -- -- 77
2019-09-30 09:00:00 20.3 4 Este 7 Este 0 -- -- 87
2019-09-30 08:00:00 20 0 Calma 6 Sur 0 -- -- 89
2019-09-30 07:00:00 20.4 3 Este 9 Este 0 -- -- 85
2019-09-30 06:00:00 20.6 0 Calma 16 Sur 0 -- -- 82
2019-09-30 05:00:00 20.7 2 Sudeste 15 Sudoeste 0 -- -- 86
2019-09-30 04:00:00 21.1 3 Sudeste 8 Noroeste 0 -- -- 85
2019-09-30 03:00:00 20.8 2 Noroeste 11 Noroeste 0 -- -- 85
2019-09-30 02:00:00 20.9 4 Oeste 8 Norte 0 -- -- 84
2019-09-30 01:00:00 21.3 2 Este 8 Sudoeste 0 -- -- 83
2019-09-30 00:00:00 21.3 0 Calma 4 Sur 0 -- -- 79
2019-09-29 23:00:00 21.8 0 Calma 4 Nordeste 0 -- -- 77
2019-09-29 22:00:00 21.9 0 Calma 5 Nordeste 0 -- -- 80
2019-09-29 21:00:00 22.5 3 Este 11 Sur 0 -- -- 78
2019-09-29 20:00:00 23.5 4 Sudoeste 11 Sudoeste 0 -- -- 75
2019-09-29 19:00:00 25.7 4 Oeste 9 Oeste 0 -- -- 68
2019-09-29 18:00:00 26.3 6 Sudoeste 15 Sudoeste 0 -- -- 67
2019-09-29 17:00:00 27 9 Oeste 17 Oeste 0 -- -- 65
2019-09-29 16:00:00 27 8 Oeste 17 Oeste 0 -- -- 63
2019-09-29 15:00:00 26.9 9 Sudoeste 19 Sudoeste 0 -- -- 62
2019-09-29 14:00:00 26.7 8 Sudoeste 19 Oeste 0 -- -- 64
2019-09-29 13:00:00 26.4 6 Oeste 16 Sudoeste 0 -- -- 61
2019-09-29 12:00:00 26 7 Sudoeste 13 Oeste 0 -- -- 63
2019-09-29 11:00:00 24.3 6 Sudoeste 10 Sudoeste 0 -- -- 67
2019-09-29 10:00:00 22.5 4 Oeste 8 Oeste 0 -- -- 76
2019-09-29 09:00:00 20.5 3 Nordeste 10 Nordeste 0 -- -- 82
2019-09-29 08:00:00 19.8 5 Este 9 Nordeste 0 -- -- 85
2019-09-29 07:00:00 19.4 5 Este 6 Este 0 -- -- 88
2019-09-29 06:00:00 18.8 0 Calma 4 Este 0 -- -- 86
2019-09-29 05:00:00 19.5 0 Calma 4 Nordeste 0 -- -- 84
2019-09-29 04:00:00 19.7 0 Calma 6 Norte 0 -- -- 82
2019-09-29 03:00:00 20.5 2 Noroeste 9 Noroeste 0 -- -- 83
2019-09-29 02:00:00 20.4 0 Calma 5 Este 0 -- -- 84
2019-09-29 01:00:00 20.9 3 Este 6 Este 0 -- -- 80
2019-09-29 00:00:00 21.2 3 Este 5 Este 0 -- -- 81
2019-09-28 23:00:00 21.1 0 Calma 3 Sudoeste 0 -- -- 80
2019-09-28 22:00:00 21.8 0 Calma 8 Noroeste 0 -- -- 78
2019-09-28 21:00:00 22.6 5 Sudoeste 10 Oeste 0 -- -- 75
2019-09-28 20:00:00 22.8 4 Sudoeste 10 Oeste 0 -- -- 73
2019-09-28 19:00:00 23.3 6 Sudoeste 12 Sudoeste 0 -- -- 73
2019-09-28 18:00:00 24.3 6 Sudoeste 13 Sudoeste 0 -- -- 70
2019-09-28 17:00:00 24.5 6 Oeste 19 Sudoeste 0 -- -- 69
2019-09-28 16:00:00 25.8 11 Sudoeste 22 Sudoeste 0 -- -- 64
2019-09-28 15:00:00 26.8 13 Sudoeste 26 Sudoeste 0 -- -- 61
2019-09-28 14:00:00 26.5 13 Sudoeste 26 Oeste 0 -- -- 62
2019-09-28 13:00:00 28.1 7 Sudoeste 27 Oeste 0 -- -- 56
2019-09-28 12:00:00 25.8 13 Oeste 24 Oeste 0 -- -- 63
2019-09-28 11:00:00 24.5 5 Oeste 14 Sudoeste 0 -- -- 66
2019-09-28 10:00:00 21.9 0 Calma 3 Sur 0 -- -- 77
2019-09-28 09:00:00 19.2 3 Este 6 Este 0 -- -- 84
2019-09-28 08:00:00 19.3 0 Calma 4 Nordeste 0 -- -- 81
2019-09-28 07:00:00 19.6 0 Calma 8 Nordeste 0 -- -- 83
2019-09-28 06:00:00 19.9 4 Nordeste 8 Nordeste 0 -- -- 84
2019-09-28 05:00:00 20.2 2 Este 5 Nordeste 0 -- -- 76
2019-09-28 04:00:00 20.6 5 Este 7 Nordeste 0 -- -- 79
2019-09-28 03:00:00 20.9 0 Calma 4 Noroeste 0 -- -- 81
2019-09-28 02:00:00 21.2 2 Oeste 12 Norte 0 -- -- 81
2019-09-28 01:00:00 20.5 2 Norte 5 Norte 0 -- -- 83
2019-09-28 00:00:00 21 0 Calma 2 Nordeste 0 -- -- 78
2019-09-27 23:00:00 21.6 0 Calma 5 Nordeste 0 -- -- 78
2019-09-27 22:00:00 22.3 2 Sudoeste 13 Sudoeste 0 -- -- 77
2019-09-27 21:00:00 22.6 3 Oeste 13 Oeste 0 -- -- 75
2019-09-27 20:00:00 23.5 6 Oeste 13 Sudoeste 0 -- -- 70
2019-09-27 19:00:00 25.6 7 Oeste 17 Sudoeste 0 -- -- 62
2019-09-27 18:00:00 26.7 9 Oeste 18 Oeste 0 -- -- 59
2019-09-27 17:00:00 27.1 10 Oeste 21 Sudoeste 0 -- -- 57
2019-09-27 16:00:00 27.3 10 Oeste 20 Sudoeste 0 -- -- 60
2019-09-27 15:00:00 26.8 11 Oeste 23 Oeste 0 -- -- 61
2019-09-27 14:00:00 26.9 10 Sudoeste 22 Sudoeste 0 -- -- 58
2019-09-27 13:00:00 26.7 8 Oeste 21 Oeste 0 -- -- 58
2019-09-27 12:00:00 25.9 8 Oeste 14 Oeste 0 -- -- 61
2019-09-27 11:00:00 24.6 6 Oeste 14 Sudoeste 0 -- -- 64
2019-09-27 10:00:00 22.6 3 Sudoeste 5 Sudoeste 0 -- -- 71
2019-09-27 09:00:00 20.7 0 Calma 8 Nordeste 0 -- -- 80
2019-09-27 08:00:00 20 0 Calma 9 Nordeste 0 -- -- 82
2019-09-27 07:00:00 20.4 5 Este 8 Este 0 -- -- 78
2019-09-27 06:00:00 20.3 4 Este 8 Este 0 -- -- 75
2019-09-27 05:00:00 20.1 0 Calma 2 Este 0 -- -- 81
2019-09-27 04:00:00 20.6 0 Calma 5 Sudeste 0 -- -- 76
2019-09-27 03:00:00 21.5 0 Calma 9 Norte 0 -- -- 75
2019-09-27 02:00:00 22 3 Noroeste 8 Noroeste 0 -- -- 76
2019-09-27 01:00:00 21.5 3 Norte 8 Noroeste 0 -- -- 77
2019-09-27 00:00:00 22 2 Noroeste 7 Noroeste 0 -- -- 74
2019-09-26 23:00:00 22.2 2 Nordeste 5 Norte 0 -- -- 73
2019-09-26 22:00:00 22.2 0 Calma 4 Norte 0 -- -- 74
2019-09-26 21:00:00 22.8 0 Calma 5 Oeste 0 -- -- 70
2019-09-26 20:00:00 24.2 3 Oeste 11 Sudoeste 0 -- -- 66
2019-09-26 19:00:00 25.9 7 Oeste 17 Sudoeste 0 -- -- 62
2019-09-26 18:00:00 26.8 10 Sudoeste 21 Sudoeste 0 -- -- 59
2019-09-26 17:00:00 27.1 12 Sudoeste 21 Sudoeste 0 -- -- 61
2019-09-26 16:00:00 27.5 12 Sudoeste 22 Oeste 0 -- -- 61
2019-09-26 15:00:00 26.7 12 Oeste 21 Oeste 0 -- -- 61
2019-09-26 14:00:00 27.1 10 Oeste 21 Oeste 0 -- -- 59
2019-09-26 13:00:00 26.8 9 Oeste 15 Oeste 0 -- -- 60
2019-09-26 12:00:00 26.3 8 Oeste 16 Oeste 0 -- -- 60
2019-09-26 11:00:00 25.1 5 Oeste 13 Oeste 0 -- -- 63
2019-09-26 10:00:00 23.2 2 Oeste 8 Oeste 0 -- -- 71
2019-09-26 09:00:00 21.1 2 Este 13 Nordeste 0 -- -- 79
2019-09-26 08:00:00 20.8 6 Norte 15 Norte 0 -- -- 79
2019-09-26 07:00:00 20.4 5 Noroeste 13 Norte 0 -- -- 84
2019-09-26 06:00:00 20.4 4 Norte 9 Nordeste 0 -- -- 83
2019-09-26 05:00:00 21.1 3 Este 18 Nordeste 0 -- -- 76
2019-09-26 04:00:00 20.7 5 Nordeste 11 Nordeste 0 -- -- 80
2019-09-26 03:00:00 20.6 0 Calma 4 Nordeste 0 -- -- 81
2019-09-26 02:00:00 20.4 0 Calma 7 Norte 0 -- -- 80
2019-09-26 01:00:00 20.9 0 Calma 5 Norte 0 -- -- 79
2019-09-26 00:00:00 21 0 Calma 5 Noroeste 0 -- -- 79
2019-09-25 23:00:00 21.3 2 Noroeste 6 Noroeste 0 -- -- 78
2019-09-25 22:00:00 21.8 0 Calma 5 Norte 0 -- -- 76
2019-09-25 21:00:00 22.5 3 Noroeste 12 Sudoeste 0 -- -- 78
2019-09-25 20:00:00 23.7 5 Oeste 12 Sudoeste 0 -- -- 71
2019-09-25 19:00:00 25 9 Sudoeste 19 Oeste 0 -- -- 66
2019-09-25 18:00:00 26.2 9 Oeste 19 Oeste 0 -- -- 64
2019-09-25 17:00:00 27.2 7 Oeste 22 Sudoeste 0 -- -- 59
2019-09-25 16:00:00 27.3 12 Sudoeste 22 Sudoeste 0 -- -- 57
2019-09-25 15:00:00 27 9 Sudoeste 24 Sudoeste 0 -- -- 56
2019-09-25 14:00:00 26.5 9 Sudoeste 19 Sudoeste 0 -- -- 59
2019-09-25 13:00:00 26.3 7 Oeste 17 Oeste 0 -- -- 58
2019-09-25 12:00:00 25.5 7 Oeste 14 Oeste 0 -- -- 58
2019-09-25 11:00:00 24.2 6 Sudoeste 12 Sudoeste 0 -- -- 63
2019-09-25 10:00:00 22 2 Sudeste 4 Sur 0 -- -- 71
2019-09-25 09:00:00 19.6 0 Calma 9 Nordeste 0 -- -- 78
2019-09-25 08:00:00 19.8 6 Este 9 Nordeste 0 -- -- 74
2019-09-25 07:00:00 20.2 0 Calma 5 Oeste 0 -- -- 76
2019-09-25 06:00:00 21.4 0 Calma 6 Nordeste 0 -- -- 72
2019-09-25 05:00:00 21.5 3 Oeste 6 Sudoeste 0 -- -- 73
2019-09-25 04:00:00 21.6 3 Nordeste 8 Oeste 0 -- -- 74
2019-09-25 03:00:00 21.4 5 Oeste 12 Noroeste 0 -- -- 76
2019-09-25 02:00:00 21.2 0 Calma 7 Noroeste 0 -- -- 78
2019-09-25 01:00:00 20.7 0 Calma 3 Nordeste 0 -- -- 79
2019-09-25 00:00:00 20.7 0 Calma 2 Nordeste 0 -- -- 76
2019-09-24 23:00:00 21.4 0 Calma 2 Norte 0 -- -- 76
2019-09-24 22:00:00 21.8 0 Calma 4 Noroeste 0 -- -- 75
2019-09-24 21:00:00 22.3 3 Sudoeste 9 Sudoeste 0 -- -- 73
2019-09-24 20:00:00 23.4 6 Sudoeste 17 Sudoeste 0 -- -- 72
2019-09-24 19:00:00 25.6 8 Sudoeste 18 Sudoeste 0 -- -- 63
2019-09-24 18:00:00 26.7 9 Oeste 21 Oeste 0 -- -- 58
2019-09-24 17:00:00 26.5 10 Oeste 21 Oeste 0 -- -- 57
2019-09-24 16:00:00 27.4 10 Sudoeste 23 Sudoeste 0 -- -- 58
2019-09-24 15:00:00 26 8 Sudoeste 18 Sur 0 -- -- 58
2019-09-24 14:00:00 26.5 12 Sudoeste 21 Sudoeste 0 -- -- 59
2019-09-24 13:00:00 26.2 10 Oeste 19 Oeste 0 -- -- 59
2019-09-24 12:00:00 25.9 8 Oeste 17 Sudoeste 0 -- -- 60
2019-09-24 11:00:00 25 5 Sudoeste 14 Sudoeste 0 -- -- 61
2019-09-24 10:00:00 23 2 Este 8 Este 0 -- -- 67
2019-09-24 09:00:00 20.3 6 Este 12 Este 0 -- -- 74
2019-09-24 08:00:00 19.7 8 Este 12 Este 0 -- -- 73
2019-09-24 07:00:00 19.6 0 Calma 8 Norte 0 -- -- 80
2019-09-24 06:00:00 20.3 4 Norte 10 Norte 0 -- -- 78
2019-09-24 05:00:00 20.2 3 Norte 5 Norte 0 -- -- 79
2019-09-24 04:00:00 21.1 0 Calma 4 Sudoeste 0 -- -- 76
2019-09-24 03:00:00 21.8 0 Calma 9 Oeste 0 -- -- 72
2019-09-24 02:00:00 22 0 Calma 9 Norte 0 -- -- 71
2019-09-24 01:00:00 22.4 5 Norte 9 Nordeste 0 -- -- 70
2019-09-24 00:00:00 22.5 3 Norte 8 Norte 0 -- -- 71
2019-09-23 23:00:00 22.2 4 Norte 6 Norte 0 -- -- 75
2019-09-23 22:00:00 22.7 4 Noroeste 9 Noroeste 0 -- -- 73
2019-09-23 21:00:00 23.3 3 Noroeste 6 Noroeste 0 -- -- 69
2019-09-23 20:00:00 24.1 3 Oeste 15 Noroeste 0 -- -- 66
2019-09-23 19:00:00 24.9 6 Oeste 13 Sudoeste 0 -- -- 64
2019-09-23 18:00:00 26 7 Sudoeste 15 Sudoeste 0 -- -- 63
2019-09-23 17:00:00 25.9 8 Oeste 16 Oeste 0 -- -- 65
2019-09-23 16:00:00 25 7 Oeste 15 Norte 0 -- -- 67
2019-09-23 15:00:00 25.2 10 Noroeste 19 Noroeste 0 -- -- 66
2019-09-23 14:00:00 26.3 9 Oeste 16 Oeste 0 -- -- 62
2019-09-23 13:00:00 25 6 Norte 13 Noroeste 0 -- -- 68
2019-09-23 12:00:00 24.9 5 Noroeste 10 Noroeste 0 -- -- 69
2019-09-23 11:00:00 24.2 5 Sudoeste 9 Oeste 0 -- -- 74
2019-09-23 10:00:00 23.5 3 Oeste 8 Sudoeste 0 -- -- 77
2019-09-23 09:00:00 22.8 2 Oeste 7 Noroeste 0 -- -- 79
2019-09-23 08:00:00 22.5 4 Noroeste 9 Noroeste 0 -- -- 80
2019-09-23 07:00:00 22.3 4 Oeste 10 Sudoeste 0 -- -- 82
2019-09-23 06:00:00 22.7 2 Norte 6 Norte 0 -- -- 82
2019-09-23 05:00:00 22.7 0 Calma 3 Oeste 0 -- -- 84
2019-09-23 04:00:00 22.6 0 Calma 4 Norte 0 -- -- 84
2019-09-23 03:00:00 22.8 0 Calma 5 Noroeste 0 -- -- 85
2019-09-23 02:00:00 23 0 Calma 12 Oeste 0 -- -- 84
2019-09-23 01:00:00 23.7 6 Noroeste 13 Noroeste 0 -- -- 79
2019-09-23 00:00:00 24 5 Sudoeste 10 Sur 0 -- -- 81
2019-09-22 23:00:00 23.6 3 Noroeste 9 Noroeste 0 -- -- 82
2019-09-22 22:00:00 23.6 6 Norte 11 Norte 0 -- -- 82
2019-09-22 21:00:00 23.7 2 Oeste 14 Sudoeste 0 -- -- 81
2019-09-22 20:00:00 24.1 7 Sudoeste 15 Sudoeste 0 -- -- 80
2019-09-22 19:00:00 25 7 Oeste 14 Oeste 0 -- -- 75
2019-09-22 18:00:00 25.5 9 Oeste 22 Oeste 0 -- -- 73
2019-09-22 17:00:00 26.8 10 Sudoeste 23 Sudoeste 0 -- -- 68
2019-09-22 16:00:00 28.2 13 Oeste 26 Sudoeste 0 -- -- 62
2019-09-22 15:00:00 27.8 11 Oeste 22 Sudoeste 0 -- -- 61
2019-09-22 14:00:00 27.5 8 Sudoeste 20 Sudoeste 0 -- -- 62
2019-09-22 13:00:00 27 8 Oeste 14 Sudoeste 0 -- -- 64
2019-09-22 12:00:00 25.8 9 Oeste 16 Sudoeste 0 -- -- 67
2019-09-22 11:00:00 24.5 8 Sudoeste 12 Sudoeste 0 -- -- 72
2019-09-22 10:00:00 22.7 0 Calma 5 Este 0 -- -- 79
2019-09-22 09:00:00 20.3 3 Este 6 Nordeste 0 -- -- 85
2019-09-22 08:00:00 19.1 0 Calma 3 Este 0 -- -- 86
2019-09-22 07:00:00 19.6 0 Calma 5 Nordeste 0 -- -- 89
2019-09-22 06:00:00 20 0 Calma 6 Nordeste 0 -- -- 84
2019-09-22 05:00:00 20.3 0 Calma 2 Nordeste 0 -- -- 84
2019-09-22 04:00:00 20 0 Calma 4 Este 0 -- -- 82
2019-09-22 03:00:00 20.9 0 Calma 9 Sudeste 0 -- -- 80
2019-09-22 02:00:00 21.7 0 Calma 13 Este 0 -- -- 81
2019-09-22 01:00:00 22.1 5 Este 18 Sudeste 0 -- -- 81
2019-09-22 00:00:00 22.5 6 Sudeste 18 Este 0 -- -- 80
2019-09-21 23:00:00 22.4 6 Norte 17 Nordeste 0 -- -- 80
2019-09-21 22:00:00 22.4 4 Sudoeste 8 Oeste 0 -- -- 84
2019-09-21 21:00:00 22.8 4 Sudoeste 10 Sudoeste 0 -- -- 81
2019-09-21 20:00:00 24 6 Oeste 15 Sudoeste 0 -- -- 75
2019-09-21 19:00:00 24.8 7 Oeste 20 Oeste 0 -- -- 73
2019-09-21 18:00:00 25.9 10 Oeste 19 Oeste 0 -- -- 68
2019-09-21 17:00:00 26.7 10 Oeste 20 Noroeste 0 -- -- 64
2019-09-21 16:00:00 27.4 9 Oeste 19 Sudoeste 0 -- -- 62
2019-09-21 15:00:00 26.4 8 Oeste 18 Sudoeste 0 -- -- 65
2019-09-21 14:00:00 25 6 Oeste 18 Sudoeste 0 -- -- 69
2019-09-21 13:00:00 25 7 Oeste 15 Oeste 0 -- -- 68
2019-09-21 12:00:00 24.6 6 Oeste 13 Oeste 0 -- -- 71
2019-09-21 11:00:00 24.8 6 Oeste 12 Oeste 0 -- -- 69
2019-09-21 10:00:00 22.8 3 Oeste 8 Oeste 0 -- -- 79
2019-09-21 09:00:00 20.6 0 Calma 5 Norte 0 -- -- 86
2019-09-21 08:00:00 19.9 0 Calma 0 Calma 0 -- -- 85
2019-09-21 07:00:00 20.8 0 Calma 4 Sur 0 -- -- 85
2019-09-21 06:00:00 21.1 3 Sur 4 Sudoeste 0 -- -- 85
2019-09-21 05:00:00 21.5 2 Sur 5 Oeste 0 -- -- 83
2019-09-21 04:00:00 21.5 0 Calma 10 Oeste 0 -- -- 82
2019-09-21 03:00:00 21.5 2 Oeste 10 Sudoeste 0 -- -- 84
2019-09-21 02:00:00 21.5 0 Calma 4 Norte 0 -- -- 80
2019-09-21 01:00:00 22.1 0 Calma 9 Sudoeste 0 -- -- 80
2019-09-21 00:00:00 22 5 Oeste 9 Sudoeste 0 -- -- 81
2019-09-20 23:00:00 22.2 3 Oeste 10 Oeste 0 -- -- 81
2019-09-20 22:00:00 22.5 5 Oeste 14 Sudoeste 0 -- -- 79
2019-09-20 21:00:00 22.6 8 Sudoeste 13 Sudoeste 0 -- -- 79
2019-09-20 20:00:00 23.7 6 Sudoeste 12 Oeste 0 -- -- 72
2019-09-20 19:00:00 25.5 5 Oeste 13 Sudoeste 0 -- -- 65
2019-09-20 18:00:00 25.9 8 Oeste 16 Oeste 0 -- -- 64
2019-09-20 17:00:00 26.5 8 Sudoeste 19 Sudoeste 0 -- -- 61
2019-09-20 16:00:00 25.9 6 Oeste 18 Oeste 0 -- -- 62
2019-09-20 15:00:00 26.2 10 Sudoeste 19 Oeste 0 -- -- 60
2019-09-20 14:00:00 26.4 8 Oeste 17 Oeste 0 -- -- 58
2019-09-20 13:00:00 26.3 9 Oeste 16 Sudoeste 0 -- -- 60
2019-09-20 12:00:00 25.1 6 Oeste 14 Oeste 0 -- -- 63
2019-09-20 11:00:00 24.2 4 Oeste 9 Oeste 0 -- -- 67
2019-09-20 10:00:00 21.9 4 Sudoeste 10 Sudoeste 0 -- -- 77
2019-09-20 09:00:00 19.8 0 Calma 6 Este 0 -- -- 81
2019-09-20 08:00:00 19 0 Calma 6 Este 0 -- -- 79
2019-09-20 07:00:00 19.6 2 Nordeste 6 Este 0 -- -- 80
2019-09-20 06:00:00 20.3 0 Calma 3 Sur 0 -- -- 80
2019-09-20 05:00:00 21.3 0 Calma 7 Oeste 0 -- -- 79
2019-09-20 04:00:00 21.1 3 Oeste 8 Oeste 0 -- -- 80
2019-09-20 03:00:00 21.6 3 Sudoeste 6 Oeste 0 -- -- 79
2019-09-20 02:00:00 21.7 5 Oeste 8 Sudoeste 0 -- -- 80
2019-09-20 01:00:00 21.7 3 Sudoeste 6 Noroeste 0 -- -- 79
2019-09-20 00:00:00 21.7 3 Noroeste 13 Oeste 0 -- -- 80
2019-09-19 23:00:00 21.5 5 Noroeste 10 Noroeste 0 -- -- 80
2019-09-19 22:00:00 22.1 0 Calma 4 Noroeste 0 -- -- 75
2019-09-19 21:00:00 22.6 0 Calma 10 Sudoeste 0 -- -- 75
2019-09-19 20:00:00 23.3 8 Sudoeste 18 Sudoeste 0 -- -- 74
2019-09-19 19:00:00 25.7 11 Sudoeste 19 Sudoeste 0 -- -- 63
2019-09-19 18:00:00 26.2 9 Sudoeste 20 Sudoeste 0 -- -- 62
2019-09-19 17:00:00 26.9 10 Sudoeste 21 Sudoeste 0 -- -- 58
2019-09-19 16:00:00 27 10 Oeste 22 Oeste 0 -- -- 58
2019-09-19 15:00:00 27.1 13 Oeste 24 Oeste 0 -- -- 58
2019-09-19 14:00:00 26.7 10 Oeste 20 Noroeste 0 -- -- 60
2019-09-19 13:00:00 26.1 8 Oeste 19 Sudoeste 0 -- -- 61
2019-09-19 12:00:00 25.4 10 Sudoeste 20 Oeste 0 -- -- 62
2019-09-19 11:00:00 24.2 5 Sudoeste 13 Sudoeste 0 -- -- 67
2019-09-19 10:00:00 22.4 3 Noroeste 6 Oeste 0 -- -- 75
2019-09-19 09:00:00 20.3 4 Nordeste 8 Norte 0 -- -- 82
2019-09-19 08:00:00 19.1 2 Norte 9 Este 0 -- -- 83
2019-09-19 07:00:00 19.7 5 Este 7 Este 0 -- -- 83
2019-09-19 06:00:00 19.6 2 Este 4 Nordeste 0 -- -- 85
2019-09-19 05:00:00 19.6 2 Nordeste 3 Nordeste 0 -- -- 80
2019-09-19 04:00:00 20.4 0 Calma 3 Este 0 -- -- 82
2019-09-19 03:00:00 20.4 0 Calma 5 Noroeste 0 -- -- 81
2019-09-19 02:00:00 20.6 2 Norte 9 Norte 0 -- -- 80
2019-09-19 01:00:00 20.6 4 Norte 8 Noroeste 0 -- -- 80
2019-09-19 00:00:00 20.8 0 Calma 3 Este 0 -- -- 77